Terminal Aerodrome Forecast
Issued by NWS Sterling, VA

Home | Current Version | Previous Version | Text Only | Print | Product List | Glossary On
Versions: 1 2 3 4 5 6 7 8 9 10 11 12 13 14
000
FTUS41 KLWX 031739
TAFCHO
TAF
KCHO 031739Z 0318/0418 00000KT P6SM OVC050
      TEMPO 0319/0322 6SM -FZRA OVC025
     FM032200 19011KT 4SM BR OVC015
     FM041100 22011KT 3SM -RA OVC005=

USA.gov is the U.S. government's official web portal to all federal, state and local government web resources and services.